createdAt,value
2022-07-31T00:00:38.491Z,2.70
2022-07-31T00:03:46.812Z,3.23
2022-07-31T00:06:55.273Z,2.90
2022-07-31T00:10:04.740Z,3.30
2022-07-31T00:13:13.139Z,3.00
2022-07-31T00:16:22.642Z,2.60
2022-07-31T00:19:30.724Z,3.17
2022-07-31T00:22:39.176Z,3.40
2022-07-31T00:25:47.362Z,2.70
2022-07-31T00:28:55.502Z,3.23
2022-07-31T00:32:05.879Z,3.30
2022-07-31T00:35:15.263Z,3.20
2022-07-31T00:38:27.499Z,2.70
2022-07-31T00:41:42.361Z,2.90
2022-07-31T00:44:51.165Z,2.90
2022-07-31T00:48:01.798Z,2.80
2022-07-31T00:51:10.404Z,2.83
2022-07-31T00:54:22.602Z,2.67
2022-07-31T00:57:31.401Z,2.60
2022-07-31T01:00:40.067Z,2.50
2022-07-31T01:03:50.736Z,2.47
2022-07-31T01:06:59.527Z,2.03
2022-07-31T01:10:13.642Z,2.20
2022-07-31T01:13:34.522Z,2.30
2022-07-31T01:16:48.326Z,2.40
2022-07-31T01:19:59.080Z,2.70
2022-07-31T01:23:31.056Z,2.43
2022-07-31T01:27:13.600Z,2.83
2022-07-31T01:30:31.000Z,3.17
2022-07-31T01:33:52.309Z,3.50
2022-07-31T01:37:10.487Z,2.80
2022-07-31T01:40:28.705Z,3.20
2022-07-31T01:43:42.040Z,3.73
2022-07-31T01:46:54.754Z,3.27
2022-07-31T01:50:07.414Z,3.27
2022-07-31T01:53:21.517Z,2.73
2022-07-31T01:56:33.421Z,2.50
2022-07-31T01:59:44.808Z,2.63
2022-07-31T02:03:09.555Z,2.33
2022-07-31T02:06:23.314Z,3.50
2022-07-31T02:09:34.252Z,4.17
2022-07-31T02:12:45.945Z,3.00
2022-07-31T02:15:57.349Z,2.73
2022-07-31T02:19:11.930Z,2.80
2022-07-31T02:22:20.565Z,2.30
2022-07-31T02:25:37.114Z,2.90
2022-07-31T02:28:49.511Z,2.27
2022-07-31T02:32:02.890Z,2.30
2022-07-31T02:35:17.601Z,2.37
2022-07-31T02:38:29.728Z,2.80
2022-07-31T02:41:38.948Z,2.10
2022-07-31T02:44:48.334Z,2.10
2022-07-31T02:47:57.115Z,2.33
2022-07-31T02:51:08.376Z,2.30
2022-07-31T02:54:18.634Z,2.23
2022-07-31T02:57:27.062Z,2.30
2022-07-31T03:00:35.798Z,2.13
2022-07-31T03:03:44.701Z,2.13
2022-07-31T03:06:54.387Z,2.23
2022-07-31T03:10:02.573Z,2.40
2022-07-31T03:13:28.476Z,2.10
2022-07-31T03:16:38.281Z,2.00
2022-07-31T03:19:48.096Z,2.20
2022-07-31T03:22:58.503Z,2.30
2022-07-31T03:26:08.098Z,2.00
2022-07-31T03:29:41.172Z,2.03
2022-07-31T03:32:44.554Z,2.00
2022-07-31T03:35:53.805Z,2.13
2022-07-31T03:39:05.330Z,2.00
2022-07-31T03:42:20.152Z,2.40
2022-07-31T03:45:31.024Z,2.30
2022-07-31T03:48:40.101Z,2.47
2022-07-31T03:51:48.862Z,2.10
2022-07-31T03:55:01.305Z,2.50
2022-07-31T03:58:11.378Z,1.90
2022-07-31T04:01:20.810Z,1.93
2022-07-31T04:04:31.780Z,2.37
2022-07-31T04:07:43.014Z,2.33
2022-07-31T04:10:55.035Z,1.70
2022-07-31T04:14:06.207Z,2.30
2022-07-31T04:17:15.548Z,2.20
2022-07-31T04:20:24.622Z,2.40
2022-07-31T04:23:32.927Z,2.30
2022-07-31T04:27:01.749Z,2.20
2022-07-31T04:30:19.481Z,1.87
2022-07-31T04:33:29.537Z,2.20
2022-07-31T04:36:38.257Z,2.00
2022-07-31T04:39:47.095Z,2.03
2022-07-31T04:42:57.237Z,2.33
2022-07-31T04:46:17.160Z,2.07
2022-07-31T04:49:26.186Z,1.77
2022-07-31T04:52:35.111Z,2.30
2022-07-31T04:56:03.392Z,2.00
2022-07-31T04:59:17.269Z,1.73
2022-07-31T05:02:28.410Z,1.70
2022-07-31T05:05:37.237Z,1.87
2022-07-31T05:08:46.351Z,1.90
2022-07-31T05:11:55.308Z,1.70
2022-07-31T05:15:06.539Z,2.10
2022-07-31T05:18:14.877Z,1.80
2022-07-31T05:22:03.745Z,1.97
2022-07-31T05:25:44.836Z,1.50
2022-07-31T05:28:58.608Z,1.80
2022-07-31T05:32:09.191Z,1.57
2022-07-31T05:35:18.609Z,1.53
2022-07-31T05:38:27.026Z,1.47
2022-07-31T05:41:55.752Z,1.40
2022-07-31T05:45:16.026Z,1.50
2022-07-31T05:48:25.865Z,1.57
2022-07-31T05:51:34.548Z,1.37
2022-07-31T05:54:45.628Z,1.57
2022-07-31T05:58:21.256Z,1.40
2022-07-31T06:01:29.927Z,1.47
2022-07-31T06:04:39.574Z,1.70
2022-07-31T06:07:51.928Z,1.70
2022-07-31T06:11:00.799Z,1.40
2022-07-31T06:14:09.585Z,1.20
2022-07-31T06:17:45.693Z,1.30
2022-07-31T06:21:05.431Z,1.40
2022-07-31T06:24:14.022Z,1.23
2022-07-31T06:27:33.370Z,1.30
2022-07-31T06:30:43.034Z,1.30
2022-07-31T06:33:52.779Z,1.43
2022-07-31T06:37:06.163Z,1.10
2022-07-31T06:40:15.477Z,1.10
2022-07-31T06:43:51.884Z,1.40
2022-07-31T06:47:38.617Z,1.20
2022-07-31T06:51:27.842Z,1.30
2022-07-31T06:54:30.802Z,1.33
2022-07-31T06:57:39.866Z,1.43
2022-07-31T07:00:48.154Z,1.30
2022-07-31T07:03:58.472Z,1.50
2022-07-31T07:07:06.619Z,1.30
2022-07-31T07:10:16.427Z,1.27
2022-07-31T07:13:54.150Z,1.40
2022-07-31T07:17:05.857Z,1.30
2022-07-31T07:20:15.468Z,1.20
2022-07-31T07:23:24.253Z,1.17
2022-07-31T07:26:40.394Z,1.30
2022-07-31T07:29:49.047Z,1.40
2022-07-31T07:32:57.507Z,1.17
2022-07-31T07:36:06.428Z,1.20
2022-07-31T07:39:14.767Z,1.10
2022-07-31T07:42:25.505Z,1.30
2022-07-31T07:45:33.977Z,1.70
2022-07-31T07:48:43.137Z,1.13
2022-07-31T07:51:59.013Z,1.20
2022-07-31T07:55:20.979Z,1.20
2022-07-31T07:58:49.487Z,1.40
2022-07-31T08:02:16.940Z,1.40
2022-07-31T08:05:27.656Z,1.30
2022-07-31T08:08:36.007Z,1.37
2022-07-31T08:12:04.724Z,1.23
2022-07-31T08:15:33.765Z,1.30
2022-07-31T08:18:51.831Z,1.23
2022-07-31T08:22:00.550Z,1.20
2022-07-31T08:25:11.300Z,1.20
2022-07-31T08:28:26.842Z,0.87
2022-07-31T08:31:36.831Z,1.30
2022-07-31T08:35:20.766Z,1.40
2022-07-31T08:38:30.161Z,1.13
2022-07-31T08:42:06.718Z,0.90
2022-07-31T08:45:16.423Z,1.07
2022-07-31T08:48:43.056Z,1.03
2022-07-31T08:51:52.959Z,1.20
2022-07-31T08:55:54.974Z,1.23
2022-07-31T08:58:51.152Z,1.43
2022-07-31T09:01:59.664Z,1.20
2022-07-31T09:05:14.076Z,1.30
2022-07-31T09:08:23.915Z,1.00
2022-07-31T09:11:34.034Z,1.00
2022-07-31T09:15:22.734Z,1.10
2022-07-31T09:18:32.173Z,1.10
2022-07-31T09:21:49.866Z,0.93
2022-07-31T09:25:11.912Z,1.23
2022-07-31T09:28:25.014Z,1.20
2022-07-31T09:31:34.454Z,1.30
2022-07-31T09:35:21.091Z,1.07
2022-07-31T09:38:36.352Z,1.17
2022-07-31T09:42:16.852Z,1.10
2022-07-31T09:45:48.425Z,1.27
2022-07-31T09:49:00.146Z,0.90
2022-07-31T09:52:20.683Z,0.90
2022-07-31T09:55:31.107Z,1.20
2022-07-31T09:58:41.280Z,0.90
2022-07-31T10:01:51.303Z,1.20
2022-07-31T10:05:01.121Z,1.03
2022-07-31T10:08:13.095Z,0.87
2022-07-31T10:11:56.879Z,1.20
2022-07-31T10:15:13.034Z,1.37
2022-07-31T10:18:35.517Z,1.00
2022-07-31T10:22:20.197Z,0.97
2022-07-31T10:25:32.573Z,1.37
2022-07-31T10:28:44.780Z,1.13
2022-07-31T10:31:53.624Z,1.27
2022-07-31T10:35:07.638Z,1.33
2022-07-31T10:38:48.717Z,1.00
2022-07-31T10:42:30.713Z,1.50
2022-07-31T10:45:50.369Z,1.00
2022-07-31T10:49:19.642Z,1.10
2022-07-31T10:52:39.821Z,1.10
2022-07-31T10:56:03.716Z,1.10
2022-07-31T10:59:31.491Z,0.87
2022-07-31T11:03:02.503Z,1.23
2022-07-31T11:06:43.217Z,1.20
2022-07-31T11:10:20.500Z,0.83
2022-07-31T11:14:00.228Z,1.00
2022-07-31T11:18:22.699Z,0.90
2022-07-31T11:21:37.776Z,1.00
2022-07-31T11:24:41.068Z,0.70
2022-07-31T11:27:50.603Z,1.00
2022-07-31T11:31:03.378Z,0.87
2022-07-31T11:34:11.882Z,1.20
2022-07-31T11:37:24.561Z,0.93
2022-07-31T11:40:32.843Z,1.00
2022-07-31T11:43:46.337Z,1.00
2022-07-31T11:46:56.474Z,1.20
2022-07-31T11:50:06.019Z,1.20
2022-07-31T11:53:16.365Z,1.07
2022-07-31T11:56:27.417Z,1.10
2022-07-31T11:59:45.871Z,1.00
2022-07-31T12:02:58.797Z,0.90
2022-07-31T12:06:10.021Z,1.00
2022-07-31T12:10:02.657Z,1.30
2022-07-31T12:12:48.540Z,0.90
2022-07-31T12:16:04.118Z,1.20
2022-07-31T12:19:12.620Z,1.10
2022-07-31T12:22:21.940Z,0.80
2022-07-31T12:25:41.802Z,0.97
2022-07-31T12:28:59.623Z,0.90
2022-07-31T12:32:09.193Z,0.97
2022-07-31T12:35:17.631Z,0.67
2022-07-31T12:38:45.541Z,0.70
2022-07-31T12:41:59.450Z,0.90
2022-07-31T12:45:18.513Z,0.83
2022-07-31T12:48:36.269Z,0.70
2022-07-31T12:51:47.838Z,0.80
2022-07-31T12:54:56.657Z,1.13
2022-07-31T12:58:06.588Z,0.77
2022-07-31T13:01:15.098Z,0.60
2022-07-31T13:04:23.843Z,0.60
2022-07-31T13:07:44.274Z,0.63
2022-07-31T13:10:53.673Z,0.87
2022-07-31T13:14:03.860Z,0.80
2022-07-31T13:17:13.852Z,0.60
2022-07-31T13:20:25.741Z,0.70
2022-07-31T13:23:34.603Z,0.50
2022-07-31T13:26:45.375Z,0.60
2022-07-31T13:29:55.463Z,0.70
2022-07-31T13:33:04.138Z,0.50
2022-07-31T13:36:12.967Z,0.70
2022-07-31T13:39:22.690Z,0.70
2022-07-31T13:42:31.518Z,0.60
2022-07-31T13:45:43.264Z,0.77
2022-07-31T13:48:56.654Z,0.67
2022-07-31T13:52:08.069Z,0.53
2022-07-31T13:55:16.889Z,0.80
2022-07-31T13:58:27.195Z,0.60
2022-07-31T14:02:03.662Z,0.47
2022-07-31T14:05:07.408Z,0.60
2022-07-31T14:08:33.477Z,0.60
2022-07-31T14:11:45.742Z,0.50
2022-07-31T14:14:54.294Z,0.70
2022-07-31T14:18:08.150Z,0.60
2022-07-31T14:21:16.911Z,0.50
2022-07-31T14:24:26.152Z,0.50
2022-07-31T14:27:35.865Z,0.80
2022-07-31T14:30:46.777Z,0.40
2022-07-31T14:33:59.490Z,0.40
2022-07-31T14:37:08.317Z,0.53
2022-07-31T14:40:18.174Z,0.70
2022-07-31T14:43:26.838Z,0.60
2022-07-31T14:46:35.442Z,0.50
2022-07-31T14:50:09.647Z,0.50
2022-07-31T14:53:13.680Z,0.60
2022-07-31T14:56:39.675Z,0.70
2022-07-31T14:59:52.064Z,0.67
2022-07-31T15:03:00.784Z,0.50
2022-07-31T15:06:50.834Z,3.27
2022-07-31T15:09:42.767Z,1.00
2022-07-31T15:12:51.209Z,1.40
2022-07-31T15:15:59.628Z,0.93
2022-07-31T15:19:08.329Z,0.60
2022-07-31T15:22:20.519Z,4.90
2022-07-31T15:25:29.014Z,0.80
2022-07-31T15:28:37.458Z,0.80
2022-07-31T15:31:45.939Z,0.63
2022-07-31T15:34:54.122Z,1.00
2022-07-31T15:38:03.721Z,0.63
2022-07-31T15:41:12.361Z,0.70
2022-07-31T15:44:27.572Z,2.20
2022-07-31T15:47:36.349Z,0.70
2022-07-31T15:50:44.986Z,0.67
2022-07-31T15:53:54.590Z,0.83
2022-07-31T15:57:04.625Z,0.80
2022-07-31T16:00:14.704Z,0.70
2022-07-31T16:03:22.857Z,0.80
2022-07-31T16:06:32.231Z,0.90
2022-07-31T16:10:03.548Z,0.73
2022-07-31T16:13:12.085Z,0.70
2022-07-31T16:16:21.124Z,0.73
2022-07-31T16:19:31.097Z,0.70
2022-07-31T16:22:45.091Z,0.80
2022-07-31T16:25:55.039Z,0.80
2022-07-31T16:29:03.714Z,0.80
2022-07-31T16:32:12.029Z,0.83
2022-07-31T16:35:20.355Z,0.90
2022-07-31T16:38:28.837Z,1.27
2022-07-31T16:41:54.438Z,0.77
2022-07-31T16:45:04.823Z,0.50
2022-07-31T16:48:13.352Z,0.70
2022-07-31T16:51:21.505Z,0.73
2022-07-31T16:54:29.740Z,0.60
2022-07-31T16:57:39.224Z,0.63
2022-07-31T17:00:48.894Z,0.60
2022-07-31T17:04:01.228Z,0.67
2022-07-31T17:07:11.220Z,0.50
2022-07-31T17:10:19.644Z,0.90
2022-07-31T17:13:29.555Z,0.50
2022-07-31T17:16:38.105Z,0.57
2022-07-31T17:19:47.614Z,0.70
2022-07-31T17:22:56.047Z,0.77
2022-07-31T17:26:04.795Z,0.60
2022-07-31T17:29:14.391Z,0.80
2022-07-31T17:32:22.847Z,0.57
2022-07-31T17:35:31.379Z,0.70
2022-07-31T17:38:39.683Z,0.50
2022-07-31T17:41:49.260Z,0.50
2022-07-31T17:44:58.899Z,0.67
2022-07-31T17:48:08.161Z,0.60
2022-07-31T17:51:16.921Z,0.50
2022-07-31T17:54:25.787Z,0.60
2022-07-31T17:57:36.475Z,0.80
2022-07-31T18:00:46.272Z,1.00
2022-07-31T18:03:54.852Z,0.83
2022-07-31T18:07:05.206Z,0.90
2022-07-31T18:10:13.678Z,0.90
2022-07-31T18:13:25.009Z,0.80
2022-07-31T18:16:34.626Z,0.70
2022-07-31T18:19:43.185Z,0.60
2022-07-31T18:22:52.221Z,0.70
2022-07-31T18:26:00.918Z,0.70
2022-07-31T18:29:09.578Z,0.80
2022-07-31T18:32:19.888Z,0.70
2022-07-31T18:35:29.380Z,0.90
2022-07-31T18:38:38.122Z,0.67
2022-07-31T18:41:49.092Z,0.80
2022-07-31T18:44:58.145Z,1.00
2022-07-31T18:48:08.142Z,0.70
2022-07-31T18:51:19.797Z,0.90
2022-07-31T18:54:28.645Z,0.73
2022-07-31T18:57:37.254Z,0.80
2022-07-31T19:00:45.878Z,0.90
2022-07-31T19:03:56.088Z,1.00
2022-07-31T19:07:14.489Z,1.10
2022-07-31T19:10:29.395Z,1.03
2022-07-31T19:13:43.093Z,1.00
2022-07-31T19:16:58.086Z,0.90
2022-07-31T19:20:12.697Z,1.00
2022-07-31T19:23:41.149Z,1.10
2022-07-31T19:26:49.652Z,0.90
2022-07-31T19:29:59.185Z,1.27
2022-07-31T19:33:10.861Z,0.97
2022-07-31T19:36:29.559Z,1.00
2022-07-31T19:39:38.193Z,1.13
2022-07-31T19:42:46.613Z,1.20
2022-07-31T19:46:00.545Z,1.20
2022-07-31T19:49:20.710Z,1.10
2022-07-31T19:52:30.610Z,1.30
2022-07-31T19:55:41.666Z,1.17
2022-07-31T19:58:51.255Z,1.30
2022-07-31T20:01:59.929Z,1.27
2022-07-31T20:05:10.545Z,1.30
2022-07-31T20:08:20.343Z,1.30
2022-07-31T20:11:31.705Z,1.20
2022-07-31T20:14:40.468Z,1.47
2022-07-31T20:17:49.281Z,1.60
2022-07-31T20:21:00.808Z,1.40
2022-07-31T20:24:11.708Z,1.07
2022-07-31T20:27:20.614Z,1.53
2022-07-31T20:30:29.172Z,2.07
2022-07-31T20:33:38.379Z,1.20
2022-07-31T20:36:46.656Z,1.50
2022-07-31T20:39:56.974Z,1.30
2022-07-31T20:43:05.368Z,1.40
2022-07-31T20:46:15.727Z,1.30
2022-07-31T20:49:35.379Z,1.13
2022-07-31T20:52:48.493Z,1.10
2022-07-31T20:55:59.330Z,1.40
2022-07-31T20:59:07.671Z,1.50
2022-07-31T21:02:16.197Z,1.10
2022-07-31T21:05:29.322Z,1.27
2022-07-31T21:08:39.300Z,0.90
2022-07-31T21:11:49.129Z,1.13
2022-07-31T21:14:57.451Z,1.27
2022-07-31T21:18:07.238Z,1.00
2022-07-31T21:21:16.753Z,1.23
2022-07-31T21:24:25.779Z,1.20
2022-07-31T21:27:37.251Z,1.20
2022-07-31T21:30:46.311Z,0.80
2022-07-31T21:33:55.432Z,1.20
2022-07-31T21:37:03.870Z,1.20
2022-07-31T21:40:17.107Z,1.50
2022-07-31T21:43:30.518Z,1.37
2022-07-31T21:46:51.745Z,1.10
2022-07-31T21:50:02.934Z,1.10
2022-07-31T21:53:11.462Z,1.33
2022-07-31T21:56:19.763Z,1.37
2022-07-31T21:59:29.824Z,1.20
2022-07-31T22:02:38.207Z,1.50
2022-07-31T22:06:04.078Z,1.23
2022-07-31T22:09:12.622Z,1.70
2022-07-31T22:12:21.848Z,1.20
2022-07-31T22:15:59.187Z,1.20
2022-07-31T22:19:03.231Z,1.50
2022-07-31T22:22:13.225Z,1.20
2022-07-31T22:25:22.803Z,1.40
2022-07-31T22:28:32.576Z,1.33
2022-07-31T22:31:49.905Z,1.50
2022-07-31T22:35:02.165Z,1.20
2022-07-31T22:38:11.130Z,1.10
2022-07-31T22:41:19.777Z,1.27
2022-07-31T22:44:28.566Z,1.23
2022-07-31T22:47:40.280Z,1.50
2022-07-31T22:50:48.973Z,1.20
2022-07-31T22:53:57.311Z,1.57
2022-07-31T22:57:05.883Z,1.33
2022-07-31T23:00:18.184Z,1.30
2022-07-31T23:03:27.811Z,1.43
2022-07-31T23:06:36.349Z,1.33
2022-07-31T23:09:44.899Z,1.43
2022-07-31T23:12:53.315Z,1.27
2022-07-31T23:16:01.711Z,1.40
2022-07-31T23:19:12.065Z,1.37
2022-07-31T23:22:20.531Z,1.60
2022-07-31T23:25:41.818Z,1.50
2022-07-31T23:28:49.955Z,1.47
2022-07-31T23:31:58.146Z,1.20
2022-07-31T23:35:09.035Z,1.43
2022-07-31T23:38:17.425Z,1.17
2022-07-31T23:41:43.067Z,1.30
2022-07-31T23:44:52.569Z,1.60
2022-07-31T23:48:00.866Z,1.10
2022-07-31T23:51:10.723Z,1.27
2022-07-31T23:54:18.986Z,1.30
2022-07-31T23:57:27.494Z,1.40
